sensor_id;sensor_type;location;lat;lon;timestamp;P1;durP1;ratioP1;P2;durP2;ratioP2
33505;SDS011;19843;51.040;13.782;2023-05-07T00:02:15;6.57;;;4.00;;
33505;SDS011;19843;51.040;13.782;2023-05-07T00:04:43;8.65;;;5.03;;
33505;SDS011;19843;51.040;13.782;2023-05-07T00:07:10;7.15;;;4.82;;
33505;SDS011;19843;51.040;13.782;2023-05-07T00:09:38;5.07;;;4.30;;
33505;SDS011;19843;51.040;13.782;2023-05-07T00:12:07;7.70;;;4.25;;
33505;SDS011;19843;51.040;13.782;2023-05-07T00:14:35;7.28;;;3.80;;
33505;SDS011;19843;51.040;13.782;2023-05-07T00:17:02;7.65;;;4.65;;
33505;SDS011;19843;51.040;13.782;2023-05-07T00:19:29;7.97;;;4.50;;
33505;SDS011;19843;51.040;13.782;2023-05-07T00:21:57;7.30;;;5.35;;
33505;SDS011;19843;51.040;13.782;2023-05-07T00:24:25;7.97;;;4.75;;
33505;SDS011;19843;51.040;13.782;2023-05-07T00:26:52;7.65;;;5.45;;
33505;SDS011;19843;51.040;13.782;2023-05-07T00:29:22;7.05;;;4.72;;
33505;SDS011;19843;51.040;13.782;2023-05-07T00:31:49;8.70;;;4.20;;
33505;SDS011;19843;51.040;13.782;2023-05-07T00:34:17;7.47;;;4.68;;
33505;SDS011;19843;51.040;13.782;2023-05-07T00:36:44;6.72;;;4.70;;
33505;SDS011;19843;51.040;13.782;2023-05-07T00:39:11;9.57;;;5.65;;
33505;SDS011;19843;51.040;13.782;2023-05-07T00:41:39;13.13;;;5.70;;
33505;SDS011;19843;51.040;13.782;2023-05-07T00:44:06;8.88;;;5.30;;
33505;SDS011;19843;51.040;13.782;2023-05-07T00:46:36;7.18;;;5.22;;
33505;SDS011;19843;51.040;13.782;2023-05-07T00:49:03;7.00;;;4.10;;
33505;SDS011;19843;51.040;13.782;2023-05-07T00:51:32;5.90;;;4.55;;
33505;SDS011;19843;51.040;13.782;2023-05-07T00:54:00;9.38;;;5.80;;
33505;SDS011;19843;51.040;13.782;2023-05-07T00:56:29;6.65;;;5.35;;
33505;SDS011;19843;51.040;13.782;2023-05-07T00:58:58;7.95;;;5.05;;
33505;SDS011;19843;51.040;13.782;2023-05-07T01:01:26;8.95;;;5.75;;
33505;SDS011;19843;51.040;13.782;2023-05-07T01:03:54;10.00;;;6.30;;
33505;SDS011;19843;51.040;13.782;2023-05-07T01:06:23;7.93;;;5.70;;
33505;SDS011;19843;51.040;13.782;2023-05-07T01:08:54;9.80;;;6.53;;
33505;SDS011;19843;51.040;13.782;2023-05-07T01:11:22;11.15;;;5.82;;
33505;SDS011;19843;51.040;13.782;2023-05-07T01:13:51;7.28;;;5.50;;
33505;SDS011;19843;51.040;13.782;2023-05-07T01:16:19;8.90;;;5.15;;
33505;SDS011;19843;51.040;13.782;2023-05-07T01:18:47;7.40;;;5.03;;
33505;SDS011;19843;51.040;13.782;2023-05-07T01:21:16;9.30;;;4.55;;
33505;SDS011;19843;51.040;13.782;2023-05-07T01:23:46;6.63;;;4.93;;
33505;SDS011;19843;51.040;13.782;2023-05-07T01:26:14;10.05;;;5.20;;
33505;SDS011;19843;51.040;13.782;2023-05-07T01:28:42;5.85;;;3.88;;
33505;SDS011;19843;51.040;13.782;2023-05-07T01:31:09;7.13;;;4.35;;
33505;SDS011;19843;51.040;13.782;2023-05-07T01:33:40;8.10;;;5.68;;
33505;SDS011;19843;51.040;13.782;2023-05-07T01:36:10;6.85;;;5.20;;
33505;SDS011;19843;51.040;13.782;2023-05-07T01:38:38;7.20;;;4.78;;
33505;SDS011;19843;51.040;13.782;2023-05-07T01:41:09;6.82;;;5.30;;
33505;SDS011;19843;51.040;13.782;2023-05-07T01:43:38;8.00;;;5.10;;
33505;SDS011;19843;51.040;13.782;2023-05-07T01:46:07;10.30;;;5.68;;
33505;SDS011;19843;51.040;13.782;2023-05-07T01:48:36;6.95;;;4.85;;
33505;SDS011;19843;51.040;13.782;2023-05-07T01:51:04;5.88;;;5.28;;
33505;SDS011;19843;51.040;13.782;2023-05-07T01:53:35;12.10;;;5.80;;
33505;SDS011;19843;51.040;13.782;2023-05-07T01:56:03;7.32;;;4.85;;
33505;SDS011;19843;51.040;13.782;2023-05-07T01:58:32;7.10;;;5.43;;
33505;SDS011;19843;51.040;13.782;2023-05-07T02:01:00;6.35;;;4.13;;
33505;SDS011;19843;51.040;13.782;2023-05-07T02:03:27;7.20;;;5.05;;
33505;SDS011;19843;51.040;13.782;2023-05-07T02:05:55;7.78;;;6.05;;
33505;SDS011;19843;51.040;13.782;2023-05-07T02:08:23;7.15;;;5.18;;
33505;SDS011;19843;51.040;13.782;2023-05-07T02:10:50;6.07;;;4.32;;
33505;SDS011;19843;51.040;13.782;2023-05-07T02:13:20;9.45;;;5.03;;
33505;SDS011;19843;51.040;13.782;2023-05-07T02:15:49;10.27;;;5.47;;
33505;SDS011;19843;51.040;13.782;2023-05-07T02:18:17;8.23;;;5.15;;
33505;SDS011;19843;51.040;13.782;2023-05-07T02:20:44;7.22;;;4.85;;
33505;SDS011;19843;51.040;13.782;2023-05-07T02:23:12;7.15;;;5.78;;
33505;SDS011;19843;51.040;13.782;2023-05-07T02:25:39;6.25;;;4.68;;
33505;SDS011;19843;51.040;13.782;2023-05-07T02:28:07;8.32;;;4.93;;
33505;SDS011;19843;51.040;13.782;2023-05-07T02:30:35;10.90;;;5.28;;
33505;SDS011;19843;51.040;13.782;2023-05-07T02:33:05;6.95;;;5.32;;
33505;SDS011;19843;51.040;13.782;2023-05-07T02:35:34;8.23;;;4.72;;
33505;SDS011;19843;51.040;13.782;2023-05-07T02:38:01;8.77;;;6.22;;
33505;SDS011;19843;51.040;13.782;2023-05-07T02:40:29;6.90;;;4.55;;
33505;SDS011;19843;51.040;13.782;2023-05-07T02:42:59;6.55;;;4.38;;
33505;SDS011;19843;51.040;13.782;2023-05-07T02:45:27;7.30;;;5.00;;
33505;SDS011;19843;51.040;13.782;2023-05-07T02:47:54;6.88;;;4.78;;
33505;SDS011;19843;51.040;13.782;2023-05-07T02:50:23;5.78;;;4.18;;
33505;SDS011;19843;51.040;13.782;2023-05-07T02:52:51;6.43;;;4.57;;
33505;SDS011;19843;51.040;13.782;2023-05-07T02:55:18;6.47;;;4.75;;
33505;SDS011;19843;51.040;13.782;2023-05-07T02:57:46;7.53;;;4.75;;
33505;SDS011;19843;51.040;13.782;2023-05-07T03:00:14;4.88;;;4.15;;
33505;SDS011;19843;51.040;13.782;2023-05-07T03:02:42;6.57;;;4.35;;
33505;SDS011;19843;51.040;13.782;2023-05-07T03:05:10;5.35;;;3.50;;
33505;SDS011;19843;51.040;13.782;2023-05-07T03:07:40;4.45;;;3.80;;
33505;SDS011;19843;51.040;13.782;2023-05-07T03:10:11;4.35;;;3.35;;
33505;SDS011;19843;51.040;13.782;2023-05-07T03:12:38;6.03;;;3.95;;
33505;SDS011;19843;51.040;13.782;2023-05-07T03:15:07;6.55;;;4.40;;
33505;SDS011;19843;51.040;13.782;2023-05-07T03:17:35;4.50;;;3.65;;
33505;SDS011;19843;51.040;13.782;2023-05-07T03:20:03;6.32;;;3.92;;
33505;SDS011;19843;51.040;13.782;2023-05-07T03:22:31;3.83;;;3.17;;
33505;SDS011;19843;51.040;13.782;2023-05-07T03:25:00;5.35;;;3.22;;
33505;SDS011;19843;51.040;13.782;2023-05-07T03:27:27;5.07;;;3.65;;
33505;SDS011;19843;51.040;13.782;2023-05-07T03:29:54;5.25;;;3.03;;
33505;SDS011;19843;51.040;13.782;2023-05-07T03:32:22;6.15;;;4.25;;
33505;SDS011;19843;51.040;13.782;2023-05-07T03:34:50;4.88;;;3.67;;
33505;SDS011;19843;51.040;13.782;2023-05-07T03:37:17;5.63;;;4.28;;
33505;SDS011;19843;51.040;13.782;2023-05-07T03:39:45;8.05;;;4.63;;
33505;SDS011;19843;51.040;13.782;2023-05-07T03:42:14;5.78;;;3.70;;
33505;SDS011;19843;51.040;13.782;2023-05-07T03:44:41;7.45;;;4.72;;
33505;SDS011;19843;51.040;13.782;2023-05-07T03:47:09;8.52;;;4.75;;
33505;SDS011;19843;51.040;13.782;2023-05-07T03:49:37;6.10;;;3.80;;
33505;SDS011;19843;51.040;13.782;2023-05-07T03:52:04;9.15;;;4.45;;
33505;SDS011;19843;51.040;13.782;2023-05-07T03:54:32;7.05;;;5.13;;
33505;SDS011;19843;51.040;13.782;2023-05-07T03:56:59;8.40;;;5.07;;
33505;SDS011;19843;51.040;13.782;2023-05-07T03:59:29;8.88;;;4.78;;
33505;SDS011;19843;51.040;13.782;2023-05-07T04:01:56;8.57;;;4.20;;
33505;SDS011;19843;51.040;13.782;2023-05-07T04:04:24;7.82;;;5.45;;
33505;SDS011;19843;51.040;13.782;2023-05-07T04:06:51;9.35;;;5.75;;
33505;SDS011;19843;51.040;13.782;2023-05-07T04:09:19;8.02;;;4.45;;
33505;SDS011;19843;51.040;13.782;2023-05-07T04:11:46;12.98;;;5.68;;
33505;SDS011;19843;51.040;13.782;2023-05-07T04:14:14;11.98;;;6.63;;
33505;SDS011;19843;51.040;13.782;2023-05-07T04:16:42;9.52;;;6.30;;
33505;SDS011;19843;51.040;13.782;2023-05-07T04:19:10;7.40;;;4.68;;
33505;SDS011;19843;51.040;13.782;2023-05-07T04:21:37;11.13;;;5.45;;
33505;SDS011;19843;51.040;13.782;2023-05-07T04:24:05;8.57;;;4.60;;
33505;SDS011;19843;51.040;13.782;2023-05-07T04:26:32;8.18;;;5.22;;
33505;SDS011;19843;51.040;13.782;2023-05-07T04:29:00;7.45;;;4.55;;
33505;SDS011;19843;51.040;13.782;2023-05-07T04:31:27;9.90;;;5.38;;
33505;SDS011;19843;51.040;13.782;2023-05-07T04:33:56;8.20;;;5.00;;
33505;SDS011;19843;51.040;13.782;2023-05-07T04:36:23;8.27;;;5.93;;
33505;SDS011;19843;51.040;13.782;2023-05-07T04:38:53;5.90;;;4.03;;
33505;SDS011;19843;51.040;13.782;2023-05-07T04:41:21;8.13;;;5.60;;
33505;SDS011;19843;51.040;13.782;2023-05-07T04:43:48;11.75;;;4.93;;
33505;SDS011;19843;51.040;13.782;2023-05-07T04:46:16;8.68;;;4.75;;
33505;SDS011;19843;51.040;13.782;2023-05-07T04:48:43;8.30;;;4.75;;
33505;SDS011;19843;51.040;13.782;2023-05-07T04:51:12;6.53;;;4.30;;
33505;SDS011;19843;51.040;13.782;2023-05-07T04:53:40;9.60;;;5.15;;
33505;SDS011;19843;51.040;13.782;2023-05-07T04:56:07;6.80;;;4.35;;
33505;SDS011;19843;51.040;13.782;2023-05-07T04:58:35;8.05;;;4.63;;
33505;SDS011;19843;51.040;13.782;2023-05-07T05:01:02;6.38;;;3.72;;
33505;SDS011;19843;51.040;13.782;2023-05-07T05:03:30;7.88;;;5.05;;
33505;SDS011;19843;51.040;13.782;2023-05-07T05:05:58;7.00;;;4.32;;
33505;SDS011;19843;51.040;13.782;2023-05-07T05:08:27;6.72;;;4.93;;
33505;SDS011;19843;51.040;13.782;2023-05-07T05:10:54;7.50;;;5.20;;
33505;SDS011;19843;51.040;13.782;2023-05-07T05:13:22;7.47;;;4.57;;
33505;SDS011;19843;51.040;13.782;2023-05-07T05:15:49;8.10;;;5.13;;
33505;SDS011;19843;51.040;13.782;2023-05-07T05:18:17;6.70;;;4.85;;
33505;SDS011;19843;51.040;13.782;2023-05-07T05:20:44;8.15;;;4.30;;
33505;SDS011;19843;51.040;13.782;2023-05-07T05:23:12;9.18;;;5.07;;
33505;SDS011;19843;51.040;13.782;2023-05-07T05:25:40;7.65;;;4.50;;
33505;SDS011;19843;51.040;13.782;2023-05-07T05:28:08;7.60;;;4.88;;
33505;SDS011;19843;51.040;13.782;2023-05-07T05:30:35;10.82;;;5.60;;
33505;SDS011;19843;51.040;13.782;2023-05-07T05:33:03;10.50;;;4.40;;
33505;SDS011;19843;51.040;13.782;2023-05-07T05:35:30;7.28;;;5.50;;
33505;SDS011;19843;51.040;13.782;2023-05-07T05:37:58;6.95;;;4.35;;
33505;SDS011;19843;51.040;13.782;2023-05-07T05:40:25;8.98;;;4.80;;
33505;SDS011;19843;51.040;13.782;2023-05-07T05:42:54;8.55;;;4.47;;
33505;SDS011;19843;51.040;13.782;2023-05-07T05:45:22;5.90;;;4.38;;
33505;SDS011;19843;51.040;13.782;2023-05-07T05:47:49;6.45;;;4.20;;
33505;SDS011;19843;51.040;13.782;2023-05-07T05:50:17;5.15;;;3.35;;
33505;SDS011;19843;51.040;13.782;2023-05-07T05:52:44;6.72;;;4.13;;
33505;SDS011;19843;51.040;13.782;2023-05-07T05:55:12;5.18;;;3.85;;
33505;SDS011;19843;51.040;13.782;2023-05-07T05:57:39;6.10;;;3.92;;
33505;SDS011;19843;51.040;13.782;2023-05-07T06:00:09;6.57;;;3.38;;
33505;SDS011;19843;51.040;13.782;2023-05-07T06:02:37;5.63;;;3.90;;
33505;SDS011;19843;51.040;13.782;2023-05-07T06:05:05;4.18;;;3.05;;
33505;SDS011;19843;51.040;13.782;2023-05-07T06:07:33;4.97;;;3.88;;
33505;SDS011;19843;51.040;13.782;2023-05-07T06:10:00;7.68;;;3.58;;
33505;SDS011;19843;51.040;13.782;2023-05-07T06:12:28;5.93;;;4.43;;
33505;SDS011;19843;51.040;13.782;2023-05-07T06:14:55;3.05;;;2.42;;
33505;SDS011;19843;51.040;13.782;2023-05-07T06:17:24;6.15;;;3.35;;
33505;SDS011;19843;51.040;13.782;2023-05-07T06:19:52;4.88;;;3.42;;
33505;SDS011;19843;51.040;13.782;2023-05-07T06:22:19;7.75;;;4.22;;
33505;SDS011;19843;51.040;13.782;2023-05-07T06:24:46;4.85;;;3.67;;
33505;SDS011;19843;51.040;13.782;2023-05-07T06:27:14;3.05;;;2.75;;
33505;SDS011;19843;51.040;13.782;2023-05-07T06:29:41;3.22;;;2.47;;
33505;SDS011;19843;51.040;13.782;2023-05-07T06:32:09;4.18;;;2.92;;
33505;SDS011;19843;51.040;13.782;2023-05-07T06:34:39;6.00;;;3.35;;
33505;SDS011;19843;51.040;13.782;2023-05-07T06:37:07;4.43;;;2.88;;
33505;SDS011;19843;51.040;13.782;2023-05-07T06:39:34;5.10;;;3.53;;
33505;SDS011;19843;51.040;13.782;2023-05-07T06:42:02;4.15;;;2.72;;
33505;SDS011;19843;51.040;13.782;2023-05-07T06:44:30;3.45;;;3.10;;
33505;SDS011;19843;51.040;13.782;2023-05-07T06:46:58;3.58;;;2.72;;
33505;SDS011;19843;51.040;13.782;2023-05-07T06:49:25;4.10;;;2.83;;
33505;SDS011;19843;51.040;13.782;2023-05-07T06:51:54;4.50;;;3.67;;
33505;SDS011;19843;51.040;13.782;2023-05-07T06:54:22;4.72;;;3.60;;
33505;SDS011;19843;51.040;13.782;2023-05-07T06:56:49;4.60;;;3.65;;
33505;SDS011;19843;51.040;13.782;2023-05-07T06:59:17;4.97;;;3.33;;
33505;SDS011;19843;51.040;13.782;2023-05-07T07:01:45;3.97;;;3.45;;
33505;SDS011;19843;51.040;13.782;2023-05-07T07:04:13;4.78;;;3.00;;
33505;SDS011;19843;51.040;13.782;2023-05-07T07:06:40;7.05;;;4.32;;
33505;SDS011;19843;51.040;13.782;2023-05-07T07:09:09;5.60;;;3.42;;
33505;SDS011;19843;51.040;13.782;2023-05-07T07:11:37;5.70;;;3.45;;
33505;SDS011;19843;51.040;13.782;2023-05-07T07:14:04;3.47;;;3.10;;
33505;SDS011;19843;51.040;13.782;2023-05-07T07:16:32;4.60;;;3.17;;
33505;SDS011;19843;51.040;13.782;2023-05-07T07:18:59;3.97;;;3.35;;
33505;SDS011;19843;51.040;13.782;2023-05-07T07:21:27;3.33;;;2.42;;
33505;SDS011;19843;51.040;13.782;2023-05-07T07:23:54;4.13;;;2.88;;
33505;SDS011;19843;51.040;13.782;2023-05-07T07:26:23;4.20;;;3.10;;
33505;SDS011;19843;51.040;13.782;2023-05-07T07:28:51;2.55;;;2.00;;
33505;SDS011;19843;51.040;13.782;2023-05-07T07:31:18;2.35;;;2.15;;
33505;SDS011;19843;51.040;13.782;2023-05-07T07:33:46;3.40;;;2.85;;
33505;SDS011;19843;51.040;13.782;2023-05-07T07:36:14;3.15;;;2.20;;
33505;SDS011;19843;51.040;13.782;2023-05-07T07:38:41;3.97;;;3.03;;
33505;SDS011;19843;51.040;13.782;2023-05-07T07:41:09;3.08;;;2.88;;
33505;SDS011;19843;51.040;13.782;2023-05-07T07:43:38;4.00;;;2.72;;
33505;SDS011;19843;51.040;13.782;2023-05-07T07:46:05;3.40;;;2.80;;
33505;SDS011;19843;51.040;13.782;2023-05-07T07:48:33;2.67;;;2.25;;
33505;SDS011;19843;51.040;13.782;2023-05-07T07:51:00;2.70;;;2.47;;
33505;SDS011;19843;51.040;13.782;2023-05-07T07:53:28;2.63;;;2.42;;
33505;SDS011;19843;51.040;13.782;2023-05-07T07:55:55;2.45;;;2.20;;
33505;SDS011;19843;51.040;13.782;2023-05-07T07:58:24;2.70;;;2.22;;
33505;SDS011;19843;51.040;13.782;2023-05-07T08:00:53;2.65;;;2.00;;
33505;SDS011;19843;51.040;13.782;2023-05-07T08:03:22;2.25;;;2.10;;
33505;SDS011;19843;51.040;13.782;2023-05-07T08:05:49;2.85;;;2.63;;
33505;SDS011;19843;51.040;13.782;2023-05-07T08:08:17;4.57;;;2.10;;
33505;SDS011;19843;51.040;13.782;2023-05-07T08:10:44;3.33;;;2.92;;
33505;SDS011;19843;51.040;13.782;2023-05-07T08:13:12;2.22;;;2.03;;
33505;SDS011;19843;51.040;13.782;2023-05-07T08:15:40;2.00;;;1.83;;
33505;SDS011;19843;51.040;13.782;2023-05-07T08:18:08;2.90;;;2.08;;
33505;SDS011;19843;51.040;13.782;2023-05-07T08:20:36;2.65;;;2.45;;
33505;SDS011;19843;51.040;13.782;2023-05-07T08:23:05;4.15;;;2.30;;
33505;SDS011;19843;51.040;13.782;2023-05-07T08:25:33;2.13;;;1.95;;
33505;SDS011;19843;51.040;13.782;2023-05-07T08:28:00;2.35;;;2.10;;
33505;SDS011;19843;51.040;13.782;2023-05-07T08:30:29;2.00;;;1.80;;
33505;SDS011;19843;51.040;13.782;2023-05-07T08:32:56;2.72;;;1.80;;
33505;SDS011;19843;51.040;13.782;2023-05-07T08:35:25;3.17;;;2.72;;
33505;SDS011;19843;51.040;13.782;2023-05-07T08:37:54;2.90;;;2.35;;
33505;SDS011;19843;51.040;13.782;2023-05-07T08:40:21;2.97;;;2.10;;
33505;SDS011;19843;51.040;13.782;2023-05-07T08:42:52;2.63;;;2.30;;
33505;SDS011;19843;51.040;13.782;2023-05-07T08:45:20;3.38;;;2.50;;
33505;SDS011;19843;51.040;13.782;2023-05-07T08:47:50;3.78;;;2.28;;
33505;SDS011;19843;51.040;13.782;2023-05-07T08:50:21;2.63;;;2.42;;
33505;SDS011;19843;51.040;13.782;2023-05-07T08:52:50;2.45;;;2.25;;
33505;SDS011;19843;51.040;13.782;2023-05-07T08:55:18;3.70;;;2.28;;
33505;SDS011;19843;51.040;13.782;2023-05-07T08:57:47;2.70;;;2.47;;
33505;SDS011;19843;51.040;13.782;2023-05-07T09:00:14;2.53;;;2.33;;
33505;SDS011;19843;51.040;13.782;2023-05-07T09:02:42;3.75;;;2.97;;
33505;SDS011;19843;51.040;13.782;2023-05-07T09:05:11;3.72;;;2.97;;
33505;SDS011;19843;51.040;13.782;2023-05-07T09:07:39;4.35;;;2.78;;
33505;SDS011;19843;51.040;13.782;2023-05-07T09:10:08;3.00;;;2.67;;
33505;SDS011;19843;51.040;13.782;2023-05-07T09:12:37;4.00;;;2.90;;
33505;SDS011;19843;51.040;13.782;2023-05-07T09:15:08;4.05;;;3.03;;
33505;SDS011;19843;51.040;13.782;2023-05-07T09:17:37;2.88;;;2.42;;
33505;SDS011;19843;51.040;13.782;2023-05-07T09:20:05;3.72;;;2.72;;
33505;SDS011;19843;51.040;13.782;2023-05-07T09:22:36;4.88;;;2.83;;
33505;SDS011;19843;51.040;13.782;2023-05-07T09:25:05;5.50;;;3.03;;
33505;SDS011;19843;51.040;13.782;2023-05-07T09:27:35;3.35;;;2.42;;
33505;SDS011;19843;51.040;13.782;2023-05-07T09:30:03;5.05;;;3.05;;
33505;SDS011;19843;51.040;13.782;2023-05-07T09:32:34;3.35;;;2.88;;
33505;SDS011;19843;51.040;13.782;2023-05-07T09:35:02;4.18;;;3.38;;
33505;SDS011;19843;51.040;13.782;2023-05-07T09:37:30;3.50;;;3.08;;
33505;SDS011;19843;51.040;13.782;2023-05-07T09:39:58;3.78;;;3.08;;
33505;SDS011;19843;51.040;13.782;2023-05-07T09:42:26;4.80;;;3.47;;
33505;SDS011;19843;51.040;13.782;2023-05-07T09:44:55;3.15;;;2.53;;
33505;SDS011;19843;51.040;13.782;2023-05-07T09:47:23;4.30;;;3.28;;
33505;SDS011;19843;51.040;13.782;2023-05-07T09:49:55;4.30;;;3.35;;
33505;SDS011;19843;51.040;13.782;2023-05-07T09:52:24;4.93;;;2.67;;
33505;SDS011;19843;51.040;13.782;2023-05-07T09:54:54;3.10;;;2.35;;
33505;SDS011;19843;51.040;13.782;2023-05-07T09:57:25;3.35;;;2.80;;
33505;SDS011;19843;51.040;13.782;2023-05-07T09:59:53;2.97;;;2.17;;
33505;SDS011;19843;51.040;13.782;2023-05-07T10:02:23;4.97;;;2.58;;
33505;SDS011;19843;51.040;13.782;2023-05-07T10:04:54;5.03;;;3.00;;
33505;SDS011;19843;51.040;13.782;2023-05-07T10:07:22;4.32;;;3.67;;
33505;SDS011;19843;51.040;13.782;2023-05-07T10:09:51;3.83;;;3.50;;
33505;SDS011;19843;51.040;13.782;2023-05-07T10:12:19;3.97;;;2.72;;
33505;SDS011;19843;51.040;13.782;2023-05-07T10:14:47;6.18;;;3.45;;
33505;SDS011;19843;51.040;13.782;2023-05-07T10:17:17;4.55;;;3.88;;
33505;SDS011;19843;51.040;13.782;2023-05-07T10:19:46;4.35;;;3.60;;
33505;SDS011;19843;51.040;13.782;2023-05-07T10:22:14;4.22;;;3.15;;
33505;SDS011;19843;51.040;13.782;2023-05-07T10:24:43;5.30;;;4.00;;
33505;SDS011;19843;51.040;13.782;2023-05-07T10:27:13;5.38;;;3.13;;
33505;SDS011;19843;51.040;13.782;2023-05-07T10:29:45;4.28;;;3.88;;
33505;SDS011;19843;51.040;13.782;2023-05-07T10:32:28;2.88;;;2.58;;
33505;SDS011;19843;51.040;13.782;2023-05-07T10:35:01;4.03;;;3.50;;
33505;SDS011;19843;51.040;13.782;2023-05-07T10:37:30;5.13;;;3.90;;
33505;SDS011;19843;51.040;13.782;2023-05-07T10:39:58;4.35;;;3.30;;
33505;SDS011;19843;51.040;13.782;2023-05-07T10:42:26;3.42;;;2.65;;
33505;SDS011;19843;51.040;13.782;2023-05-07T10:44:53;4.88;;;3.35;;
33505;SDS011;19843;51.040;13.782;2023-05-07T10:47:21;5.00;;;3.53;;
33505;SDS011;19843;51.040;13.782;2023-05-07T10:56:19;3.97;;;2.75;;
33505;SDS011;19843;51.040;13.782;2023-05-07T10:58:53;4.93;;;3.25;;
33505;SDS011;19843;51.040;13.782;2023-05-07T11:04:19;3.63;;;2.40;;
33505;SDS011;19843;51.040;13.782;2023-05-07T11:09:58;3.15;;;2.38;;
33505;SDS011;19843;51.040;13.782;2023-05-07T11:15:36;2.88;;;2.50;;
33505;SDS011;19843;51.040;13.782;2023-05-07T11:18:08;4.18;;;3.25;;
33505;SDS011;19843;51.040;13.782;2023-05-07T11:20:45;2.75;;;2.30;;
33505;SDS011;19843;51.040;13.782;2023-05-07T11:26:47;3.58;;;2.65;;
33505;SDS011;19843;51.040;13.782;2023-05-07T11:29:16;3.15;;;2.45;;
33505;SDS011;19843;51.040;13.782;2023-05-07T11:31:50;5.53;;;3.05;;
33505;SDS011;19843;51.040;13.782;2023-05-07T11:34:22;2.85;;;2.42;;
33505;SDS011;19843;51.040;13.782;2023-05-07T11:36:54;3.15;;;2.83;;
33505;SDS011;19843;51.040;13.782;2023-05-07T11:39:23;2.17;;;1.83;;
33505;SDS011;19843;51.040;13.782;2023-05-07T11:41:52;2.38;;;2.15;;
33505;SDS011;19843;51.040;13.782;2023-05-07T11:44:20;3.65;;;2.83;;
33505;SDS011;19843;51.040;13.782;2023-05-07T11:46:48;4.35;;;3.53;;
33505;SDS011;19843;51.040;13.782;2023-05-07T11:49:15;5.57;;;3.00;;
33505;SDS011;19843;51.040;13.782;2023-05-07T11:51:43;5.40;;;2.70;;
33505;SDS011;19843;51.040;13.782;2023-05-07T11:54:15;4.03;;;2.50;;
33505;SDS011;19843;51.040;13.782;2023-05-07T11:56:43;5.50;;;2.92;;
33505;SDS011;19843;51.040;13.782;2023-05-07T11:59:13;2.97;;;2.65;;
33505;SDS011;19843;51.040;13.782;2023-05-07T12:01:45;3.10;;;2.33;;
33505;SDS011;19843;51.040;13.782;2023-05-07T12:04:13;4.95;;;3.40;;
33505;SDS011;19843;51.040;13.782;2023-05-07T12:06:40;4.50;;;3.00;;
33505;SDS011;19843;51.040;13.782;2023-05-07T12:09:08;2.65;;;2.33;;
33505;SDS011;19843;51.040;13.782;2023-05-07T12:11:37;5.15;;;2.85;;
33505;SDS011;19843;51.040;13.782;2023-05-07T12:14:06;4.72;;;3.25;;
33505;SDS011;19843;51.040;13.782;2023-05-07T12:16:38;3.13;;;2.70;;
33505;SDS011;19843;51.040;13.782;2023-05-07T12:19:07;2.88;;;2.60;;
33505;SDS011;19843;51.040;13.782;2023-05-07T12:21:41;3.58;;;2.90;;
33505;SDS011;19843;51.040;13.782;2023-05-07T12:24:08;3.15;;;2.78;;
33505;SDS011;19843;51.040;13.782;2023-05-07T12:26:37;2.95;;;2.33;;
33505;SDS011;19843;51.040;13.782;2023-05-07T12:29:05;2.45;;;2.17;;
33505;SDS011;19843;51.040;13.782;2023-05-07T12:31:32;2.47;;;2.28;;
33505;SDS011;19843;51.040;13.782;2023-05-07T12:34:01;2.67;;;2.47;;
33505;SDS011;19843;51.040;13.782;2023-05-07T12:36:36;5.68;;;3.33;;
33505;SDS011;19843;51.040;13.782;2023-05-07T12:39:04;3.20;;;2.47;;
33505;SDS011;19843;51.040;13.782;2023-05-07T12:41:35;3.40;;;2.42;;
33505;SDS011;19843;51.040;13.782;2023-05-07T12:44:04;3.67;;;2.90;;
33505;SDS011;19843;51.040;13.782;2023-05-07T12:46:31;3.20;;;2.80;;
33505;SDS011;19843;51.040;13.782;2023-05-07T12:48:59;3.35;;;3.08;;
33505;SDS011;19843;51.040;13.782;2023-05-07T12:51:28;3.97;;;2.55;;
33505;SDS011;19843;51.040;13.782;2023-05-07T12:53:56;3.08;;;2.78;;
33505;SDS011;19843;51.040;13.782;2023-05-07T12:56:24;4.10;;;3.10;;
33505;SDS011;19843;51.040;13.782;2023-05-07T12:58:51;2.70;;;2.45;;
33505;SDS011;19843;51.040;13.782;2023-05-07T13:01:28;3.67;;;2.65;;
33505;SDS011;19843;51.040;13.782;2023-05-07T13:04:00;2.75;;;2.28;;
33505;SDS011;19843;51.040;13.782;2023-05-07T13:06:31;3.22;;;2.72;;
33505;SDS011;19843;51.040;13.782;2023-05-07T13:09:22;4.15;;;2.70;;
33505;SDS011;19843;51.040;13.782;2023-05-07T13:11:50;2.50;;;2.30;;
33505;SDS011;19843;51.040;13.782;2023-05-07T13:14:17;3.17;;;2.40;;
33505;SDS011;19843;51.040;13.782;2023-05-07T13:16:47;2.50;;;2.30;;
33505;SDS011;19843;51.040;13.782;2023-05-07T13:19:14;2.67;;;2.47;;
33505;SDS011;19843;51.040;13.782;2023-05-07T13:21:43;2.85;;;2.60;;
33505;SDS011;19843;51.040;13.782;2023-05-07T13:24:10;4.10;;;3.22;;
33505;SDS011;19843;51.040;13.782;2023-05-07T13:26:38;3.05;;;2.78;;
33505;SDS011;19843;51.040;13.782;2023-05-07T13:29:05;3.55;;;2.55;;
33505;SDS011;19843;51.040;13.782;2023-05-07T13:31:33;2.95;;;2.22;;
33505;SDS011;19843;51.040;13.782;2023-05-07T13:34:01;2.97;;;2.28;;
33505;SDS011;19843;51.040;13.782;2023-05-07T13:36:29;1.90;;;1.80;;
33505;SDS011;19843;51.040;13.782;2023-05-07T13:39:00;3.83;;;2.40;;
33505;SDS011;19843;51.040;13.782;2023-05-07T13:41:29;3.83;;;2.65;;
33505;SDS011;19843;51.040;13.782;2023-05-07T13:43:56;2.47;;;2.22;;
33505;SDS011;19843;51.040;13.782;2023-05-07T13:46:24;2.92;;;2.63;;
33505;SDS011;19843;51.040;13.782;2023-05-07T13:48:51;3.47;;;2.92;;
33505;SDS011;19843;51.040;13.782;2023-05-07T13:51:19;2.90;;;2.00;;
33505;SDS011;19843;51.040;13.782;2023-05-07T13:53:46;2.10;;;1.70;;
33505;SDS011;19843;51.040;13.782;2023-05-07T13:56:15;3.55;;;2.70;;
33505;SDS011;19843;51.040;13.782;2023-05-07T13:58:42;2.45;;;1.95;;
33505;SDS011;19843;51.040;13.782;2023-05-07T14:01:25;2.40;;;2.20;;
33505;SDS011;19843;51.040;13.782;2023-05-07T14:03:53;2.78;;;2.13;;
33505;SDS011;19843;51.040;13.782;2023-05-07T14:06:20;3.42;;;2.67;;
33505;SDS011;19843;51.040;13.782;2023-05-07T14:08:48;2.47;;;2.28;;
33505;SDS011;19843;51.040;13.782;2023-05-07T14:11:16;2.70;;;2.25;;
33505;SDS011;19843;51.040;13.782;2023-05-07T14:13:47;1.95;;;1.75;;
33505;SDS011;19843;51.040;13.782;2023-05-07T14:16:14;2.28;;;2.08;;
33505;SDS011;19843;51.040;13.782;2023-05-07T14:18:42;2.65;;;2.45;;
33505;SDS011;19843;51.040;13.782;2023-05-07T14:21:10;3.30;;;2.65;;
33505;SDS011;19843;51.040;13.782;2023-05-07T14:23:37;1.92;;;1.83;;
33505;SDS011;19843;51.040;13.782;2023-05-07T14:26:04;2.72;;;2.05;;
33505;SDS011;19843;51.040;13.782;2023-05-07T14:28:33;2.00;;;1.77;;
33505;SDS011;19843;51.040;13.782;2023-05-07T14:31:01;2.08;;;1.50;;
33505;SDS011;19843;51.040;13.782;2023-05-07T14:33:28;2.63;;;2.17;;
33505;SDS011;19843;51.040;13.782;2023-05-07T14:35:57;1.77;;;1.67;;
33505;SDS011;19843;51.040;13.782;2023-05-07T14:38:24;3.50;;;2.00;;
33505;SDS011;19843;51.040;13.782;2023-05-07T14:40:52;1.63;;;1.52;;
33505;SDS011;19843;51.040;13.782;2023-05-07T14:43:23;2.50;;;1.92;;
33505;SDS011;19843;51.040;13.782;2023-05-07T14:45:52;1.90;;;1.80;;
33505;SDS011;19843;51.040;13.782;2023-05-07T14:48:19;2.95;;;2.60;;
33505;SDS011;19843;51.040;13.782;2023-05-07T14:50:47;2.50;;;1.83;;
33505;SDS011;19843;51.040;13.782;2023-05-07T14:53:14;2.50;;;2.30;;
33505;SDS011;19843;51.040;13.782;2023-05-07T14:55:42;2.38;;;2.17;;
33505;SDS011;19843;51.040;13.782;2023-05-07T14:58:10;2.15;;;2.00;;
33505;SDS011;19843;51.040;13.782;2023-05-07T15:00:37;2.70;;;2.15;;